AirNav   Air Wisconsin Up To $57,000 Bonus
 
 399 users online  

CL12 St Vincent Professional Office Building Heliport
Los Angeles, California, USA

GOING TO LOS ANGELES?


FAA INFORMATION EFFECTIVE 05 DECEMBER 2019

Location

FAA Identifier: CL12
Lat/Long: 34-03-49.6100N 118-16-21.3800W
34-03.826833N 118-16.356333W
34.0637806,-118.2726056
(estimated)
Elevation: 464 ft. / 141 m (estimated)
Variation: 14E (1985)
From city: 2 miles W of LOS ANGELES, CA
Time zone: UTC -8 (UTC -7 during Daylight Saving Time)
Zip code: 90057

Heliport Operations

Heliport use: Private use. Permission required prior to landing
Activation date: 11/1983
Control tower: no
ARTCC: LOS ANGELES CENTER
FSS: HAWTHORNE FLIGHT SERVICE STATION
Attendance: CONTINUOUS
Wind indicator: lighted
Segmented circle: no
Lights: FOR PERIMETER LGTS CALL 213-484-7111 OR 213-484-7152.

Heliport Communications

WX ASOS at HHR (9 nm S): PHONE 310-973-8930
WX ASOS at BUR (9 nm NW): PHONE 818-841-1384
WX ASOS at SMO (9 nm W): PHONE 310-392-6453
WX ASOS at LAX (10 nm SW): PHONE 310-568-1486
WX AWOS-3PT at CPM (11 nm S): 127.150 (310-631-4958)
WX AWOS-3PT at EMT (12 nm E): 118.75 ((626) 444-1107)
WX AWOS-3PT at WHP (14 nm NW): 132.1 (818-899-9820)
WX ASOS at VNY (14 nm NW): PHONE 818-904-9213
WX ASOS at LGB (16 nm S): PHONE 562-424-0572
WX ASOS at FUL (19 nm SE): PHONE 714-870-1372

Nearby radio navigation aids

VOR radial/distance  VOR name  Freq  Var
SMOr056/9.7SANTA MONICA VOR/DME110.8015E
LAXr030/11.1LOS ANGELES VORTAC113.6015E
VNYr116/14.5VAN NUYS VOR/DME113.1015E
SLIr312/20.0SEAL BEACH VORTAC115.7015E
POMr253/24.1POMONA VORTAC110.4015E
FIMr105/34.9FILLMORE VORTAC112.5015E
PMDr182/35.6PALMDALE VORTAC114.5015E
ELBr297/35.6EL TORO VOR/DME117.2014E
PDZr268/38.0PARADISE VORTAC112.2015E
VTUr080/38.7VENTURA VOR/DME108.2015E

Heliport Services

Runway Information

Helipad H1

Dimensions: 70 x 70 ft. / 21 x 21 m
Surface: mats
Runway edge lights: PERI
Latitude: 34-03.826833N
Longitude: 118-16.356333W
Elevation: 464.0 ft.
Traffic pattern: leftleft

Heliport Ownership and Management from official FAA records

Ownership: Privately-owned
Owner: SAINT VINCENT MEDICAL CENTER
2131 WEST THIRD STREET
LOS ANGELES, CA 90057
Phone 213-484-7111
Manager: FACILITIES MANAGER
2131 WEST THIRD STREET
LOS ANGELES, CA 90057
Phone 213-484-7152

Additional Remarks

FOR CD CTC LOS ANGELES ARTCC AT 661-575-2079.

Instrument Procedures

There are no published instrument procedures at CL12.

Some nearby airports with instrument procedures:

KHHR - Jack Northrop Field/Hawthorne Municipal Airport (9 nm S)
KBUR - Bob Hope Airport (9 nm NW)
KSMO - Santa Monica Municipal Airport (9 nm W)
KLAX - Los Angeles International Airport (10 nm SW)
KEMT - San Gabriel Valley Airport (12 nm E)
KWHP - Whiteman Airport (14 nm NW)
KVNY - Van Nuys Airport (14 nm NW)
KLGB - Long Beach Airport (Daugherty Field) (16 nm S)
KTOA - Zamperini Field Airport (16 nm S)
KFUL - Fullerton Municipal Airport (19 nm SE)
 
Loc | Ops | Rwys | IFR | FBO | Links
Com | Nav | Svcs | Stats | Notes
Area around CL12 (St Vincent Professional Office Building Heliport)
 
Road maps at: MapQuest Bing Google
 
Aerial photo
No photo
 
Sectional chart

 
Airport distance calculator
Flying to St Vincent Professional Office Building Heliport? Find the distance to fly.

From to CL12

Sunrise and sunset
Times for 10-Dec-2019
 Local
(UTC-8)
 Zulu
(UTC)
Morning civil twilight06:2114:21
Sunrise06:4914:49
Sunset16:4300:43
Evening civil twilight17:1101:11

Current date and time
Zulu (UTC)  11-Dec-2019 06:37:23
Local (UTC-8)  10-Dec-2019 22:37:23
 
METAR
KCQT 
2nm SE 
110552Z AUTO 00000KT 7SM CLR 14/11 A3020 RMK AO2 SLP226 T01390106 10183 20133 53004
KSMO 
9nm W 
110551Z AUTO 31003KT 10SM CLR 11/07 A3021 RMK AO2 SLP229 T01110072 10156 20111 52006
KHHR 
9nm S 
110553Z 00000KT 8SM CLR 13/11 A3021 RMK AO2 SLP229 T01330106 10178 20133 53005
KBUR 
9nm NW 
110553Z 00000KT 10SM CLR 10/05 A3020 RMK AO2 SLP219 T01000050 10178 20100 50005
KLAX 
10nm SW 
110613Z 27006KT 10SM FEW009 FEW012 15/12 A3021 RMK AO2 T01500117
KEMT 
13nm E 
110350Z 00000KT 10SM CLR 13/11 A3020
KWHP 
13nm NW 
110355Z 00000KT 10SM SKC 12/05 A3022
KVNY 
14nm NW 
110551Z 00000KT 10SM CLR 09/07 A3020 RMK AO2 SLP226 T00940067 10178 20094 51007
KLGB 
16nm S 
110553Z 28003KT 7SM CLR 14/12 A3020 RMK AO2 SLP227 T01390117 10172 20122 53005
KTOA 
17nm S 
110347Z 19004KT 10SM SKC 11/10 A3019 RMK LAST
TAF
KSMO 
9nm W 
110531Z 1106/1206 VRB03KT P6SM SCT200 FM112100 23008KT P6SM SCT200 FM120300 VRB03KT P6SM SCT200
KBUR 
9nm NW 
110531Z 1106/1206 VRB03KT P6SM BKN200 FM112100 17007KT P6SM SCT200 FM120300 VRB03KT P6SM SCT200
KLAX 
10nm SW 
110531Z 1106/1212 VRB03KT P6SM SCT200 FM112000 26010KT P6SM SCT200 FM120400 VRB03KT P6SM SCT200
KVNY 
14nm NW 
110531Z 1106/1206 VRB03KT P6SM BKN200 FM112200 14006KT P6SM SCT200 FM120300 VRB03KT P6SM SCT200
KLGB 
16nm S 
110531Z 1106/1206 VRB03KT P6SM SCT200 FM112000 20007KT P6SM SCT200 FM120000 29007KT P6SM SCT200 FM120400 VRB03KT P6SM SCT200
NOTAMs
Click for the latest NOTAMs
NOTAMs are issued by the DoD/FAA and will open in a separate window not controlled by AirNav.

 

 
 

Would you like to see your business listed on this page?

 If your business provides an interesting product or service to pilots, flight crews, aircraft, or users of the St Vincent Professional Office Building Heliport, you should consider listing it here.  To start the listing process, click on the button below
 
Add a business
 

Other Pages about St Vincent Professional Office Building Heliport

Update a link
 
Copyright © AirNav, LLC. All rights reserved. Privacy Policy  Contact